sensor_id;sensor_type;location;lat;lon;timestamp;P1;durP1;ratioP1;P2;durP2;ratioP2
73487;SDS011;61721;42.206;25.320;2023-04-03T00:01:55;2.53;;;0.98;;
73487;SDS011;61721;42.206;25.320;2023-04-03T00:04:22;2.83;;;1.15;;
73487;SDS011;61721;42.206;25.320;2023-04-03T00:06:50;3.47;;;0.95;;
73487;SDS011;61721;42.206;25.320;2023-04-03T00:09:18;2.97;;;1.20;;
73487;SDS011;61721;42.206;25.320;2023-04-03T00:11:45;3.45;;;1.20;;
73487;SDS011;61721;42.206;25.320;2023-04-03T00:14:12;3.45;;;1.23;;
73487;SDS011;61721;42.206;25.320;2023-04-03T00:16:39;2.92;;;1.10;;
73487;SDS011;61721;42.206;25.320;2023-04-03T00:19:06;3.00;;;1.20;;
73487;SDS011;61721;42.206;25.320;2023-04-03T00:21:36;4.32;;;1.70;;
73487;SDS011;61721;42.206;25.320;2023-04-03T00:24:05;4.82;;;2.05;;
73487;SDS011;61721;42.206;25.320;2023-04-03T00:26:33;6.57;;;2.90;;
73487;SDS011;61721;42.206;25.320;2023-04-03T00:29:00;6.18;;;2.20;;
73487;SDS011;61721;42.206;25.320;2023-04-03T00:31:27;3.20;;;1.30;;
73487;SDS011;61721;42.206;25.320;2023-04-03T00:33:55;3.83;;;1.50;;
73487;SDS011;61721;42.206;25.320;2023-04-03T00:36:22;2.90;;;1.08;;
73487;SDS011;61721;42.206;25.320;2023-04-03T00:38:49;2.42;;;0.90;;
73487;SDS011;61721;42.206;25.320;2023-04-03T00:41:18;2.03;;;0.82;;
73487;SDS011;61721;42.206;25.320;2023-04-03T00:43:45;1.90;;;0.80;;
73487;SDS011;61721;42.206;25.320;2023-04-03T00:46:12;2.38;;;1.10;;
73487;SDS011;61721;42.206;25.320;2023-04-03T00:48:40;2.80;;;1.05;;
73487;SDS011;61721;42.206;25.320;2023-04-03T00:51:09;2.05;;;0.82;;
73487;SDS011;61721;42.206;25.320;2023-04-03T00:53:40;1.83;;;0.73;;
73487;SDS011;61721;42.206;25.320;2023-04-03T00:56:12;2.17;;;0.80;;
73487;SDS011;61721;42.206;25.320;2023-04-03T00:58:44;1.90;;;0.80;;
73487;SDS011;61721;42.206;25.320;2023-04-03T01:01:16;2.83;;;1.20;;
73487;SDS011;61721;42.206;25.320;2023-04-03T01:03:48;2.22;;;0.82;;
73487;SDS011;61721;42.206;25.320;2023-04-03T01:06:16;3.25;;;1.05;;
73487;SDS011;61721;42.206;25.320;2023-04-03T01:08:47;2.67;;;1.13;;
73487;SDS011;61721;42.206;25.320;2023-04-03T01:11:16;2.63;;;1.00;;
73487;SDS011;61721;42.206;25.320;2023-04-03T01:13:45;3.03;;;1.30;;
73487;SDS011;61721;42.206;25.320;2023-04-03T01:16:12;3.20;;;1.20;;
73487;SDS011;61721;42.206;25.320;2023-04-03T01:18:39;2.90;;;1.00;;
73487;SDS011;61721;42.206;25.320;2023-04-03T01:27:01;2.83;;;1.23;;
73487;SDS011;61721;42.206;25.320;2023-04-03T01:29:32;3.15;;;1.10;;
73487;SDS011;61721;42.206;25.320;2023-04-03T01:32:01;2.10;;;0.90;;
73487;SDS011;61721;42.206;25.320;2023-04-03T01:34:30;2.70;;;0.80;;
73487;SDS011;61721;42.206;25.320;2023-04-03T01:36:57;2.22;;;0.90;;
73487;SDS011;61721;42.206;25.320;2023-04-03T01:39:25;2.10;;;0.90;;
73487;SDS011;61721;42.206;25.320;2023-04-03T01:41:52;2.70;;;0.90;;
73487;SDS011;61721;42.206;25.320;2023-04-03T01:44:19;2.65;;;1.10;;
73487;SDS011;61721;42.206;25.320;2023-04-03T01:46:46;2.33;;;1.10;;
73487;SDS011;61721;42.206;25.320;2023-04-03T01:49:15;3.47;;;1.05;;
73487;SDS011;61721;42.206;25.320;2023-04-03T01:51:42;2.83;;;0.90;;
73487;SDS011;61721;42.206;25.320;2023-04-03T01:54:09;1.83;;;0.80;;
73487;SDS011;61721;42.206;25.320;2023-04-03T01:56:36;1.95;;;0.80;;
73487;SDS011;61721;42.206;25.320;2023-04-03T01:59:04;1.45;;;0.70;;
73487;SDS011;61721;42.206;25.320;2023-04-03T02:01:31;2.38;;;1.15;;
73487;SDS011;61721;42.206;25.320;2023-04-03T02:03:58;1.80;;;0.88;;
73487;SDS011;61721;42.206;25.320;2023-04-03T02:06:27;2.17;;;0.80;;
73487;SDS011;61721;42.206;25.320;2023-04-03T02:08:54;2.40;;;0.90;;
73487;SDS011;61721;42.206;25.320;2023-04-03T02:11:22;1.67;;;0.70;;
73487;SDS011;61721;42.206;25.320;2023-04-03T02:13:49;2.00;;;0.90;;
73487;SDS011;61721;42.206;25.320;2023-04-03T02:16:16;3.05;;;1.00;;
73487;SDS011;61721;42.206;25.320;2023-04-03T02:18:43;3.40;;;1.13;;
73487;SDS011;61721;42.206;25.320;2023-04-03T02:21:10;2.83;;;1.20;;
73487;SDS011;61721;42.206;25.320;2023-04-03T02:23:39;5.93;;;1.40;;
73487;SDS011;61721;42.206;25.320;2023-04-03T02:26:07;4.50;;;2.03;;
73487;SDS011;61721;42.206;25.320;2023-04-03T02:28:35;4.97;;;1.55;;
73487;SDS011;61721;42.206;25.320;2023-04-03T02:31:04;10.57;;;1.40;;
73487;SDS011;61721;42.206;25.320;2023-04-03T02:33:32;4.55;;;1.10;;
73487;SDS011;61721;42.206;25.320;2023-04-03T02:36:02;3.38;;;1.20;;
73487;SDS011;61721;42.206;25.320;2023-04-03T02:38:29;5.32;;;1.88;;
73487;SDS011;61721;42.206;25.320;2023-04-03T02:41:00;4.60;;;2.00;;
73487;SDS011;61721;42.206;25.320;2023-04-03T02:43:28;2.65;;;1.00;;
73487;SDS011;61721;42.206;25.320;2023-04-03T02:45:55;2.33;;;0.82;;
73487;SDS011;61721;42.206;25.320;2023-04-03T02:48:23;1.77;;;0.70;;
73487;SDS011;61721;42.206;25.320;2023-04-03T02:50:51;2.25;;;1.00;;
73487;SDS011;61721;42.206;25.320;2023-04-03T02:53:19;1.90;;;1.00;;
73487;SDS011;61721;42.206;25.320;2023-04-03T02:55:46;2.70;;;1.02;;
73487;SDS011;61721;42.206;25.320;2023-04-03T02:58:15;3.53;;;1.10;;
73487;SDS011;61721;42.206;25.320;2023-04-03T03:00:42;3.25;;;1.10;;
73487;SDS011;61721;42.206;25.320;2023-04-03T03:03:09;2.80;;;1.25;;
73487;SDS011;61721;42.206;25.320;2023-04-03T03:05:38;3.33;;;1.40;;
73487;SDS011;61721;42.206;25.320;2023-04-03T03:08:05;5.03;;;1.50;;
73487;SDS011;61721;42.206;25.320;2023-04-03T03:10:33;3.47;;;1.42;;
73487;SDS011;61721;42.206;25.320;2023-04-03T03:13:00;2.85;;;1.20;;
73487;SDS011;61721;42.206;25.320;2023-04-03T03:15:28;3.22;;;1.33;;
73487;SDS011;61721;42.206;25.320;2023-04-03T03:17:56;2.80;;;1.20;;
73487;SDS011;61721;42.206;25.320;2023-04-03T03:20:23;3.78;;;2.03;;
73487;SDS011;61721;42.206;25.320;2023-04-03T03:22:50;3.85;;;1.58;;
73487;SDS011;61721;42.206;25.320;2023-04-03T03:25:17;3.40;;;1.33;;
73487;SDS011;61721;42.206;25.320;2023-04-03T03:27:45;4.35;;;1.80;;
73487;SDS011;61721;42.206;25.320;2023-04-03T03:30:12;4.15;;;1.85;;
73487;SDS011;61721;42.206;25.320;2023-04-03T03:32:41;3.28;;;1.50;;
73487;SDS011;61721;42.206;25.320;2023-04-03T03:35:08;3.38;;;1.30;;
73487;SDS011;61721;42.206;25.320;2023-04-03T03:37:35;2.75;;;1.17;;
73487;SDS011;61721;42.206;25.320;2023-04-03T03:40:02;5.07;;;1.50;;
73487;SDS011;61721;42.206;25.320;2023-04-03T03:42:30;2.80;;;1.17;;
73487;SDS011;61721;42.206;25.320;2023-04-03T03:44:57;3.67;;;1.73;;
73487;SDS011;61721;42.206;25.320;2023-04-03T03:47:24;5.00;;;2.28;;
73487;SDS011;61721;42.206;25.320;2023-04-03T03:49:53;17.02;;;6.30;;
73487;SDS011;61721;42.206;25.320;2023-04-03T03:52:20;9.60;;;4.20;;
73487;SDS011;61721;42.206;25.320;2023-04-03T03:54:48;7.50;;;3.85;;
73487;SDS011;61721;42.206;25.320;2023-04-03T03:57:16;7.68;;;2.78;;
73487;SDS011;61721;42.206;25.320;2023-04-03T03:59:43;5.60;;;2.42;;
73487;SDS011;61721;42.206;25.320;2023-04-03T04:02:11;7.43;;;1.95;;
73487;SDS011;61721;42.206;25.320;2023-04-03T04:04:38;4.35;;;1.85;;
73487;SDS011;61721;42.206;25.320;2023-04-03T04:07:07;6.18;;;1.58;;
73487;SDS011;61721;42.206;25.320;2023-04-03T04:09:36;18.83;;;5.90;;
73487;SDS011;61721;42.206;25.320;2023-04-03T04:12:04;15.38;;;5.95;;
73487;SDS011;61721;42.206;25.320;2023-04-03T04:14:34;14.73;;;4.07;;
73487;SDS011;61721;42.206;25.320;2023-04-03T04:17:01;13.15;;;3.33;;
73487;SDS011;61721;42.206;25.320;2023-04-03T04:19:30;11.35;;;3.30;;
73487;SDS011;61721;42.206;25.320;2023-04-03T04:21:58;22.10;;;3.97;;
73487;SDS011;61721;42.206;25.320;2023-04-03T04:24:27;9.68;;;3.35;;
73487;SDS011;61721;42.206;25.320;2023-04-03T04:26:54;8.25;;;3.80;;
73487;SDS011;61721;42.206;25.320;2023-04-03T04:29:21;11.63;;;3.53;;
73487;SDS011;61721;42.206;25.320;2023-04-03T04:31:48;15.50;;;6.93;;
73487;SDS011;61721;42.206;25.320;2023-04-03T04:34:16;12.07;;;6.43;;
73487;SDS011;61721;42.206;25.320;2023-04-03T04:36:44;17.77;;;7.13;;
73487;SDS011;61721;42.206;25.320;2023-04-03T04:39:12;15.40;;;6.22;;
73487;SDS011;61721;42.206;25.320;2023-04-03T04:41:40;17.00;;;6.78;;
73487;SDS011;61721;42.206;25.320;2023-04-03T04:44:08;11.35;;;5.45;;
73487;SDS011;61721;42.206;25.320;2023-04-03T04:46:35;5.75;;;2.92;;
73487;SDS011;61721;42.206;25.320;2023-04-03T04:49:02;5.50;;;2.30;;
73487;SDS011;61721;42.206;25.320;2023-04-03T04:51:29;5.28;;;1.85;;
73487;SDS011;61721;42.206;25.320;2023-04-03T04:53:57;4.18;;;1.88;;
73487;SDS011;61721;42.206;25.320;2023-04-03T04:56:24;5.00;;;2.00;;
73487;SDS011;61721;42.206;25.320;2023-04-03T04:58:53;5.13;;;1.60;;
73487;SDS011;61721;42.206;25.320;2023-04-03T05:01:21;3.80;;;1.73;;
73487;SDS011;61721;42.206;25.320;2023-04-03T05:03:48;4.25;;;1.50;;
73487;SDS011;61721;42.206;25.320;2023-04-03T05:06:15;2.92;;;1.33;;
73487;SDS011;61721;42.206;25.320;2023-04-03T05:08:42;3.95;;;1.27;;
73487;SDS011;61721;42.206;25.320;2023-04-03T05:11:09;4.95;;;1.77;;
73487;SDS011;61721;42.206;25.320;2023-04-03T05:13:37;4.03;;;2.00;;
73487;SDS011;61721;42.206;25.320;2023-04-03T05:16:06;5.95;;;3.08;;
73487;SDS011;61721;42.206;25.320;2023-04-03T05:18:33;3.88;;;1.95;;
73487;SDS011;61721;42.206;25.320;2023-04-03T05:21:00;8.32;;;1.90;;
73487;SDS011;61721;42.206;25.320;2023-04-03T05:23:27;5.80;;;1.83;;
73487;SDS011;61721;42.206;25.320;2023-04-03T05:25:54;5.70;;;1.80;;
73487;SDS011;61721;42.206;25.320;2023-04-03T05:28:22;4.57;;;2.00;;
73487;SDS011;61721;42.206;25.320;2023-04-03T05:30:52;3.75;;;2.13;;
73487;SDS011;61721;42.206;25.320;2023-04-03T05:33:22;3.58;;;2.00;;
73487;SDS011;61721;42.206;25.320;2023-04-03T05:35:51;6.40;;;2.35;;
73487;SDS011;61721;42.206;25.320;2023-04-03T05:38:18;13.60;;;4.65;;
73487;SDS011;61721;42.206;25.320;2023-04-03T05:40:46;11.07;;;4.05;;
73487;SDS011;61721;42.206;25.320;2023-04-03T05:43:13;9.75;;;4.18;;
73487;SDS011;61721;42.206;25.320;2023-04-03T05:45:41;7.70;;;3.13;;
73487;SDS011;61721;42.206;25.320;2023-04-03T05:48:09;7.25;;;2.15;;
73487;SDS011;61721;42.206;25.320;2023-04-03T05:50:37;4.18;;;2.10;;
73487;SDS011;61721;42.206;25.320;2023-04-03T05:53:06;5.18;;;2.22;;
73487;SDS011;61721;42.206;25.320;2023-04-03T05:55:39;8.70;;;2.55;;
73487;SDS011;61721;42.206;25.320;2023-04-03T05:58:06;6.75;;;1.90;;
73487;SDS011;61721;42.206;25.320;2023-04-03T06:00:33;6.40;;;3.20;;
73487;SDS011;61721;42.206;25.320;2023-04-03T06:03:00;5.60;;;3.20;;
73487;SDS011;61721;42.206;25.320;2023-04-03T06:05:28;9.52;;;3.65;;
73487;SDS011;61721;42.206;25.320;2023-04-03T06:07:56;7.90;;;3.72;;
73487;SDS011;61721;42.206;25.320;2023-04-03T06:10:24;5.82;;;3.00;;
73487;SDS011;61721;42.206;25.320;2023-04-03T06:12:51;8.35;;;2.92;;
73487;SDS011;61721;42.206;25.320;2023-04-03T06:15:18;6.20;;;2.20;;
73487;SDS011;61721;42.206;25.320;2023-04-03T06:17:46;5.45;;;2.13;;
73487;SDS011;61721;42.206;25.320;2023-04-03T06:20:14;5.82;;;2.60;;
73487;SDS011;61721;42.206;25.320;2023-04-03T06:22:41;8.73;;;4.07;;
73487;SDS011;61721;42.206;25.320;2023-04-03T06:25:10;8.52;;;4.57;;
73487;SDS011;61721;42.206;25.320;2023-04-03T06:27:37;5.05;;;2.72;;
73487;SDS011;61721;42.206;25.320;2023-04-03T06:30:05;4.75;;;2.80;;
73487;SDS011;61721;42.206;25.320;2023-04-03T06:32:33;5.93;;;2.70;;
73487;SDS011;61721;42.206;25.320;2023-04-03T06:35:01;14.52;;;3.20;;
73487;SDS011;61721;42.206;25.320;2023-04-03T06:37:28;6.43;;;2.72;;
73487;SDS011;61721;42.206;25.320;2023-04-03T06:39:55;6.15;;;2.45;;
73487;SDS011;61721;42.206;25.320;2023-04-03T06:42:24;6.38;;;2.60;;
73487;SDS011;61721;42.206;25.320;2023-04-03T06:44:51;6.47;;;2.90;;
73487;SDS011;61721;42.206;25.320;2023-04-03T06:47:19;7.10;;;2.75;;
73487;SDS011;61721;42.206;25.320;2023-04-03T06:49:46;4.95;;;3.28;;
73487;SDS011;61721;42.206;25.320;2023-04-03T06:52:13;6.85;;;3.33;;
73487;SDS011;61721;42.206;25.320;2023-04-03T06:54:40;9.32;;;3.78;;
73487;SDS011;61721;42.206;25.320;2023-04-03T06:57:08;12.35;;;4.45;;
73487;SDS011;61721;42.206;25.320;2023-04-03T06:59:37;10.88;;;3.85;;
73487;SDS011;61721;42.206;25.320;2023-04-03T07:02:04;9.48;;;3.78;;
73487;SDS011;61721;42.206;25.320;2023-04-03T07:04:31;10.57;;;3.63;;
73487;SDS011;61721;42.206;25.320;2023-04-03T07:06:58;8.63;;;3.53;;
73487;SDS011;61721;42.206;25.320;2023-04-03T07:09:25;6.78;;;3.28;;
73487;SDS011;61721;42.206;25.320;2023-04-03T07:11:52;8.35;;;3.15;;
73487;SDS011;61721;42.206;25.320;2023-04-03T07:14:20;9.18;;;3.17;;
73487;SDS011;61721;42.206;25.320;2023-04-03T07:16:48;8.27;;;4.65;;
73487;SDS011;61721;42.206;25.320;2023-04-03T07:19:16;17.40;;;12.68;;
73487;SDS011;61721;42.206;25.320;2023-04-03T07:21:44;16.27;;;6.63;;
73487;SDS011;61721;42.206;25.320;2023-04-03T07:24:12;21.02;;;7.55;;
73487;SDS011;61721;42.206;25.320;2023-04-03T07:26:39;11.52;;;5.90;;
73487;SDS011;61721;42.206;25.320;2023-04-03T07:29:07;8.48;;;3.72;;
73487;SDS011;61721;42.206;25.320;2023-04-03T07:31:34;6.68;;;3.00;;
73487;SDS011;61721;42.206;25.320;2023-04-03T07:34:03;5.63;;;2.03;;
73487;SDS011;61721;42.206;25.320;2023-04-03T07:36:30;5.50;;;1.85;;
73487;SDS011;61721;42.206;25.320;2023-04-03T07:38:58;4.60;;;2.28;;
73487;SDS011;61721;42.206;25.320;2023-04-03T07:41:25;4.80;;;2.00;;
73487;SDS011;61721;42.206;25.320;2023-04-03T07:43:53;5.32;;;2.08;;
73487;SDS011;61721;42.206;25.320;2023-04-03T07:46:23;7.00;;;1.95;;
73487;SDS011;61721;42.206;25.320;2023-04-03T07:48:51;4.10;;;1.50;;
73487;SDS011;61721;42.206;25.320;2023-04-03T07:51:20;4.15;;;1.48;;
73487;SDS011;61721;42.206;25.320;2023-04-03T07:53:47;2.60;;;1.30;;
73487;SDS011;61721;42.206;25.320;2023-04-03T07:56:15;6.88;;;1.42;;
73487;SDS011;61721;42.206;25.320;2023-04-03T07:58:43;5.28;;;1.70;;
73487;SDS011;61721;42.206;25.320;2023-04-03T08:01:10;4.25;;;1.70;;
73487;SDS011;61721;42.206;25.320;2023-04-03T08:03:38;9.98;;;1.65;;
73487;SDS011;61721;42.206;25.320;2023-04-03T08:06:06;4.07;;;1.40;;
73487;SDS011;61721;42.206;25.320;2023-04-03T08:08:36;4.13;;;1.20;;
73487;SDS011;61721;42.206;25.320;2023-04-03T08:11:06;4.55;;;1.20;;
73487;SDS011;61721;42.206;25.320;2023-04-03T08:13:33;7.47;;;1.23;;
73487;SDS011;61721;42.206;25.320;2023-04-03T08:16:06;6.05;;;1.50;;
73487;SDS011;61721;42.206;25.320;2023-04-03T08:18:35;2.50;;;1.10;;
73487;SDS011;61721;42.206;25.320;2023-04-03T08:21:05;3.47;;;1.25;;
73487;SDS011;61721;42.206;25.320;2023-04-03T08:23:32;3.45;;;1.45;;
73487;SDS011;61721;42.206;25.320;2023-04-03T08:26:06;5.53;;;1.55;;
73487;SDS011;61721;42.206;25.320;2023-04-03T08:28:34;5.57;;;2.10;;
73487;SDS011;61721;42.206;25.320;2023-04-03T08:31:02;4.40;;;1.75;;
73487;SDS011;61721;42.206;25.320;2023-04-03T08:33:32;3.30;;;1.42;;
73487;SDS011;61721;42.206;25.320;2023-04-03T08:36:02;4.78;;;1.73;;
73487;SDS011;61721;42.206;25.320;2023-04-03T08:38:30;5.90;;;2.92;;
73487;SDS011;61721;42.206;25.320;2023-04-03T08:41:02;6.78;;;3.80;;
73487;SDS011;61721;42.206;25.320;2023-04-03T08:43:40;7.82;;;2.97;;
73487;SDS011;61721;42.206;25.320;2023-04-03T08:46:19;5.18;;;2.13;;
73487;SDS011;61721;42.206;25.320;2023-04-03T08:48:51;4.82;;;2.13;;
73487;SDS011;61721;42.206;25.320;2023-04-03T08:51:20;8.68;;;2.38;;
73487;SDS011;61721;42.206;25.320;2023-04-03T08:53:51;6.40;;;2.40;;
73487;SDS011;61721;42.206;25.320;2023-04-03T08:56:24;5.38;;;2.50;;
73487;SDS011;61721;42.206;25.320;2023-04-03T08:58:55;5.40;;;2.70;;
73487;SDS011;61721;42.206;25.320;2023-04-03T09:01:25;9.85;;;2.42;;
73487;SDS011;61721;42.206;25.320;2023-04-03T09:03:56;4.70;;;2.10;;
73487;SDS011;61721;42.206;25.320;2023-04-03T09:06:25;4.45;;;2.10;;
73487;SDS011;61721;42.206;25.320;2023-04-03T09:09:01;6.55;;;1.58;;
73487;SDS011;61721;42.206;25.320;2023-04-03T09:11:43;3.70;;;1.50;;
73487;SDS011;61721;42.206;25.320;2023-04-03T09:14:18;3.88;;;1.33;;
73487;SDS011;61721;42.206;25.320;2023-04-03T09:16:54;4.22;;;1.30;;
73487;SDS011;61721;42.206;25.320;2023-04-03T09:19:34;3.30;;;1.38;;
73487;SDS011;61721;42.206;25.320;2023-04-03T09:22:11;4.25;;;1.20;;
73487;SDS011;61721;42.206;25.320;2023-04-03T09:24:43;8.82;;;2.72;;
73487;SDS011;61721;42.206;25.320;2023-04-03T09:27:14;5.90;;;2.33;;
73487;SDS011;61721;42.206;25.320;2023-04-03T09:29:42;6.45;;;2.38;;
73487;SDS011;61721;42.206;25.320;2023-04-03T09:32:18;8.27;;;2.03;;
73487;SDS011;61721;42.206;25.320;2023-04-03T09:34:51;3.58;;;1.00;;
73487;SDS011;61721;42.206;25.320;2023-04-03T09:40:27;10.00;;;2.53;;
73487;SDS011;61721;42.206;25.320;2023-04-03T09:43:02;3.42;;;1.70;;
73487;SDS011;61721;42.206;25.320;2023-04-03T09:45:48;2.75;;;0.90;;
73487;SDS011;61721;42.206;25.320;2023-04-03T09:48:18;4.13;;;1.30;;
73487;SDS011;61721;42.206;25.320;2023-04-03T09:50:54;2.58;;;1.08;;
73487;SDS011;61721;42.206;25.320;2023-04-03T09:53:30;4.50;;;1.95;;
73487;SDS011;61721;42.206;25.320;2023-04-03T09:56:00;4.30;;;1.50;;
73487;SDS011;61721;42.206;25.320;2023-04-03T09:58:30;5.13;;;1.65;;
73487;SDS011;61721;42.206;25.320;2023-04-03T10:01:01;6.15;;;1.85;;
73487;SDS011;61721;42.206;25.320;2023-04-03T10:03:29;5.25;;;2.15;;
73487;SDS011;61721;42.206;25.320;2023-04-03T10:06:00;11.05;;;4.22;;
73487;SDS011;61721;42.206;25.320;2023-04-03T10:08:28;8.30;;;3.38;;
73487;SDS011;61721;42.206;25.320;2023-04-03T10:13:54;8.57;;;4.32;;
73487;SDS011;61721;42.206;25.320;2023-04-03T10:16:26;9.85;;;4.47;;
73487;SDS011;61721;42.206;25.320;2023-04-03T10:22:04;10.52;;;4.35;;
73487;SDS011;61721;42.206;25.320;2023-04-03T10:24:45;6.90;;;3.20;;
73487;SDS011;61721;42.206;25.320;2023-04-03T10:27:21;6.85;;;2.95;;
73487;SDS011;61721;42.206;25.320;2023-04-03T10:29:59;7.15;;;3.35;;
73487;SDS011;61721;42.206;25.320;2023-04-03T10:32:51;10.13;;;3.28;;
73487;SDS011;61721;42.206;25.320;2023-04-03T10:35:28;11.95;;;2.88;;
73487;SDS011;61721;42.206;25.320;2023-04-03T10:38:07;6.75;;;3.08;;
73487;SDS011;61721;42.206;25.320;2023-04-03T10:40:44;11.10;;;4.38;;
73487;SDS011;61721;42.206;25.320;2023-04-03T10:43:21;9.02;;;3.42;;
73487;SDS011;61721;42.206;25.320;2023-04-03T10:45:59;12.63;;;3.60;;
73487;SDS011;61721;42.206;25.320;2023-04-03T10:48:32;10.27;;;4.15;;
73487;SDS011;61721;42.206;25.320;2023-04-03T10:51:10;12.27;;;3.92;;
73487;SDS011;61721;42.206;25.320;2023-04-03T10:53:49;8.93;;;3.47;;
73487;SDS011;61721;42.206;25.320;2023-04-03T10:56:24;8.60;;;3.80;;
73487;SDS011;61721;42.206;25.320;2023-04-03T10:58:58;9.35;;;3.53;;
73487;SDS011;61721;42.206;25.320;2023-04-03T11:01:38;10.48;;;3.22;;
73487;SDS011;61721;42.206;25.320;2023-04-03T11:04:08;5.80;;;2.78;;
73487;SDS011;61721;42.206;25.320;2023-04-03T11:06:39;8.95;;;3.20;;
73487;SDS011;61721;42.206;25.320;2023-04-03T11:09:12;8.55;;;4.10;;
73487;SDS011;61721;42.206;25.320;2023-04-03T11:11:46;9.18;;;3.67;;
73487;SDS011;61721;42.206;25.320;2023-04-03T11:14:17;8.07;;;4.18;;
73487;SDS011;61721;42.206;25.320;2023-04-03T11:16:53;10.98;;;3.85;;
73487;SDS011;61721;42.206;25.320;2023-04-03T11:19:39;10.52;;;4.53;;
73487;SDS011;61721;42.206;25.320;2023-04-03T11:22:11;8.63;;;4.93;;
73487;SDS011;61721;42.206;25.320;2023-04-03T11:24:46;8.70;;;4.60;;
73487;SDS011;61721;42.206;25.320;2023-04-03T11:27:22;13.40;;;5.70;;
73487;SDS011;61721;42.206;25.320;2023-04-03T11:29:52;10.02;;;4.72;;
73487;SDS011;61721;42.206;25.320;2023-04-03T11:32:29;11.88;;;4.20;;
73487;SDS011;61721;42.206;25.320;2023-04-03T11:35:16;11.43;;;4.20;;
73487;SDS011;61721;42.206;25.320;2023-04-03T11:37:45;11.27;;;3.55;;
73487;SDS011;61721;42.206;25.320;2023-04-03T11:40:22;9.55;;;4.28;;
73487;SDS011;61721;42.206;25.320;2023-04-03T11:42:52;11.20;;;4.30;;
73487;SDS011;61721;42.206;25.320;2023-04-03T11:45:31;12.55;;;5.25;;
73487;SDS011;61721;42.206;25.320;2023-04-03T11:48:04;11.80;;;4.30;;
73487;SDS011;61721;42.206;25.320;2023-04-03T11:50:43;10.52;;;4.75;;
73487;SDS011;61721;42.206;25.320;2023-04-03T11:53:30;10.88;;;4.65;;
73487;SDS011;61721;42.206;25.320;2023-04-03T11:56:02;11.43;;;4.57;;
73487;SDS011;61721;42.206;25.320;2023-04-03T11:58:31;9.82;;;4.18;;
73487;SDS011;61721;42.206;25.320;2023-04-03T12:01:01;15.77;;;5.53;;
73487;SDS011;61721;42.206;25.320;2023-04-03T12:12:30;16.77;;;5.43;;
73487;SDS011;61721;42.206;25.320;2023-04-03T12:15:22;15.20;;;6.15;;
73487;SDS011;61721;42.206;25.320;2023-04-03T12:21:19;16.38;;;5.75;;
73487;SDS011;61721;42.206;25.320;2023-04-03T12:26:27;12.25;;;4.70;;
73487;SDS011;61721;42.206;25.320;2023-04-03T12:28:57;12.00;;;4.20;;
73487;SDS011;61721;42.206;25.320;2023-04-03T12:31:30;11.85;;;4.80;;
73487;SDS011;61721;42.206;25.320;2023-04-03T12:34:17;10.57;;;4.38;;
73487;SDS011;61721;42.206;25.320;2023-04-03T12:36:57;11.02;;;4.53;;
73487;SDS011;61721;42.206;25.320;2023-04-03T12:42:25;9.93;;;4.10;;
73487;SDS011;61721;42.206;25.320;2023-04-03T12:45:03;11.43;;;4.55;;
73487;SDS011;61721;42.206;25.320;2023-04-03T12:47:43;10.07;;;4.00;;
73487;SDS011;61721;42.206;25.320;2023-04-03T12:50:18;9.30;;;3.95;;
73487;SDS011;61721;42.206;25.320;2023-04-03T12:52:52;10.98;;;4.10;;
73487;SDS011;61721;42.206;25.320;2023-04-03T12:55:26;13.15;;;4.72;;
73487;SDS011;61721;42.206;25.320;2023-04-03T12:57:54;14.45;;;5.70;;
73487;SDS011;61721;42.206;25.320;2023-04-03T13:00:22;8.18;;;4.13;;
73487;SDS011;61721;42.206;25.320;2023-04-03T13:02:55;12.48;;;5.05;;
73487;SDS011;61721;42.206;25.320;2023-04-03T13:05:23;17.30;;;6.97;;
73487;SDS011;61721;42.206;25.320;2023-04-03T13:07:54;11.75;;;5.80;;
73487;SDS011;61721;42.206;25.320;2023-04-03T13:10:25;13.15;;;3.80;;
73487;SDS011;61721;42.206;25.320;2023-04-03T13:12:53;14.40;;;5.30;;
73487;SDS011;61721;42.206;25.320;2023-04-03T13:15:22;12.57;;;5.05;;
73487;SDS011;61721;42.206;25.320;2023-04-03T13:17:51;7.57;;;2.70;;
73487;SDS011;61721;42.206;25.320;2023-04-03T13:20:21;8.20;;;3.72;;
73487;SDS011;61721;42.206;25.320;2023-04-03T13:22:58;8.00;;;3.30;;
73487;SDS011;61721;42.206;25.320;2023-04-03T13:25:31;6.43;;;2.92;;
73487;SDS011;61721;42.206;25.320;2023-04-03T13:28:03;8.70;;;2.83;;
73487;SDS011;61721;42.206;25.320;2023-04-03T13:30:32;7.75;;;3.28;;
73487;SDS011;61721;42.206;25.320;2023-04-03T13:33:02;6.82;;;3.08;;
73487;SDS011;61721;42.206;25.320;2023-04-03T13:35:33;6.53;;;3.28;;
73487;SDS011;61721;42.206;25.320;2023-04-03T13:38:07;6.47;;;2.83;;
73487;SDS011;61721;42.206;25.320;2023-04-03T13:40:50;6.88;;;3.38;;
73487;SDS011;61721;42.206;25.320;2023-04-03T13:43:19;7.90;;;3.33;;
73487;SDS011;61721;42.206;25.320;2023-04-03T13:45:57;12.00;;;3.35;;
73487;SDS011;61721;42.206;25.320;2023-04-03T13:48:35;9.52;;;3.40;;
73487;SDS011;61721;42.206;25.320;2023-04-03T13:51:05;7.95;;;3.45;;
73487;SDS011;61721;42.206;25.320;2023-04-03T13:53:46;7.47;;;3.45;;
73487;SDS011;61721;42.206;25.320;2023-04-03T13:56:19;7.35;;;3.60;;
73487;SDS011;61721;42.206;25.320;2023-04-03T13:58:56;9.98;;;3.70;;
73487;SDS011;61721;42.206;25.320;2023-04-03T14:04:17;9.05;;;3.70;;
73487;SDS011;61721;42.206;25.320;2023-04-03T14:06:47;7.55;;;4.05;;
73487;SDS011;61721;42.206;25.320;2023-04-03T14:09:16;10.45;;;3.97;;
73487;SDS011;61721;42.206;25.320;2023-04-03T14:11:44;7.35;;;3.40;;
73487;SDS011;61721;42.206;25.320;2023-04-03T14:14:13;10.25;;;4.38;;
73487;SDS011;61721;42.206;25.320;2023-04-03T14:16:43;14.23;;;4.90;;
73487;SDS011;61721;42.206;25.320;2023-04-03T14:19:17;9.95;;;4.45;;
73487;SDS011;61721;42.206;25.320;2023-04-03T14:24:18;9.52;;;3.83;;
73487;SDS011;61721;42.206;25.320;2023-04-03T14:26:45;8.15;;;4.50;;
73487;SDS011;61721;42.206;25.320;2023-04-03T14:29:13;10.20;;;4.47;;
73487;SDS011;61721;42.206;25.320;2023-04-03T14:31:41;10.40;;;4.40;;
73487;SDS011;61721;42.206;25.320;2023-04-03T14:34:10;12.52;;;5.22;;
73487;SDS011;61721;42.206;25.320;2023-04-03T14:36:38;9.50;;;5.20;;
73487;SDS011;61721;42.206;25.320;2023-04-03T14:39:07;12.05;;;4.78;;
73487;SDS011;61721;42.206;25.320;2023-04-03T14:41:38;13.32;;;4.68;;
73487;SDS011;61721;42.206;25.320;2023-04-03T14:44:05;10.35;;;4.43;;
73487;SDS011;61721;42.206;25.320;2023-04-03T14:46:34;8.35;;;3.90;;
73487;SDS011;61721;42.206;25.320;2023-04-03T14:49:08;9.65;;;4.28;;
73487;SDS011;61721;42.206;25.320;2023-04-03T14:51:40;7.63;;;3.63;;
73487;SDS011;61721;42.206;25.320;2023-04-03T14:54:10;11.07;;;4.30;;
73487;SDS011;61721;42.206;25.320;2023-04-03T14:56:41;10.35;;;3.83;;
73487;SDS011;61721;42.206;25.320;2023-04-03T14:59:10;11.43;;;3.90;;
73487;SDS011;61721;42.206;25.320;2023-04-03T15:04:09;8.23;;;3.72;;
73487;SDS011;61721;42.206;25.320;2023-04-03T15:06:38;7.53;;;3.63;;
73487;SDS011;61721;42.206;25.320;2023-04-03T15:09:08;7.82;;;3.83;;
73487;SDS011;61721;42.206;25.320;2023-04-03T15:11:46;9.60;;;4.00;;
73487;SDS011;61721;42.206;25.320;2023-04-03T15:14:13;13.80;;;4.32;;
73487;SDS011;61721;42.206;25.320;2023-04-03T15:16:41;9.98;;;5.28;;
73487;SDS011;61721;42.206;25.320;2023-04-03T15:19:08;10.25;;;4.90;;
73487;SDS011;61721;42.206;25.320;2023-04-03T15:21:36;7.22;;;4.20;;
73487;SDS011;61721;42.206;25.320;2023-04-03T15:24:03;8.85;;;4.32;;
73487;SDS011;61721;42.206;25.320;2023-04-03T15:26:31;11.70;;;4.47;;
73487;SDS011;61721;42.206;25.320;2023-04-03T15:29:00;7.93;;;4.15;;